METAR Data
IDs: Format: Raw Decoded Include TAF

Data at: 1303 UTC 23 Sep 2018

KEKY 231256Z AUTO 00000KT 10SM CLR 22/21 A3006 RMK AO2 SLP189 T02220211
KEKY 231156Z AUTO 00000KT 10SM CLR 21/21 A3004 RMK AO2 SLP180 T02060206 10233 20206 53009
KEKY 231056Z AUTO 00000KT 10SM CLR 22/21 A3003 RMK AO2 SLP174 T02170206
KEKY 230956Z AUTO 15003KT 10SM CLR 22/21 A3001 RMK AO2 SLP168 T02170206
KEKY 230856Z AUTO 17003KT 10SM CLR 22/21 A3001 RMK AO2 SLP168 T02170206 58007
KEKY 230756Z AUTO 17003KT 10SM CLR 23/21 A3002 RMK AO2 SLP170 T02280206
KEKY 230656Z AUTO 13005KT 10SM CLR 23/21 A3003 RMK AO2 SLP172 T02280206
KEKY 230556Z AUTO 14004KT 10SM CLR 23/21 A3003 RMK AO2 SLP175 T02330211 10272 20233 403280228 56009
KEKY 230456Z AUTO 19003KT 10SM CLR 24/21 A3004 RMK AO2 SLP179 T02390211
KEKY 230356Z AUTO 16003KT 10SM CLR 24/21 A3005 RMK AO2 SLP181 T02440211
KEKY 230256Z AUTO 00000KT 10SM CLR 26/21 A3006 RMK AO2 SLP185 T02560211 51018
KEKY 230156Z AUTO 15003KT 10SM CLR 24/21 A3004 RMK AO2 SLP181 T02440211
KEKY 230056Z AUTO 20003KT 10SM CLR 26/21 A3003 RMK AO2 SLP176 T02560211
KEKY 222356Z AUTO 19003KT 10SM SCT110 27/21 A3001 RMK AO2 SLP168 T02720206 10328 20272 51007
KEKY 222256Z AUTO 19003KT 10SM CLR 29/20 A3000 RMK AO2 SLP164 T02940200
KEKY 222156Z AUTO 20007KT 10SM CLR 32/20 A3000 RMK AO2 SLP162 T03170200
KEKY 222056Z AUTO 20007KT 10SM CLR 32/21 A2998 RMK AO2 SLP157 T03170206 56029
KEKY 221956Z AUTO VRB04KT 10SM SCT050 31/21 A3001 RMK AO2 SLP166 T03110206
KEKY 221856Z AUTO VRB05KT 10SM FEW050 32/21 A3004 RMK AO2 SLP176 T03220206
KEKY 221756Z AUTO 26003KT 10SM SCT045 BKN065 30/21 A3007 RMK AO2 SLP188 T03000211 10317 20228 58013
KEKY 221656Z AUTO VRB04KT 10SM FEW033 BKN040 OVC050 29/22 A3009 RMK AO2 SLP194 T02940222
KEKY 221556Z AUTO VRB03KT 10SM FEW032 29/22 A3011 RMK AO2 SLP201 T02940222
KEKY 221456Z AUTO VRB03KT 10SM CLR 27/22 A3011 RMK AO2 SLP202 T02720222 51006
KEKY 221356Z AUTO 15003KT 10SM CLR 26/22 A3011 RMK AO2 SLP202 T02560217
KEKY 221256Z AUTO 14006KT 10SM CLR 23/21 A3010 RMK AO2 SLP201 T02330211
KEKY 221156Z AUTO VRB03KT 10SM CLR 23/21 A3009 RMK AO2 SLP196 T02280206 10250 20228 53005
KEKY 221056Z AUTO 15004KT 10SM BKN055 23/21 A3008 RMK AO2 SLP194 T02330211
KEKY 220956Z AUTO 14005KT 10SM SCT120 23/22 A3007 RMK AO2 SLP190 T02330217
KEKY 220856Z AUTO 13006KT 10SM OVC110 24/22 A3007 RMK AO2 SLP189 T02440222 56010
KEKY 220756Z AUTO 15005KT 10SM OVC110 24/22 A3008 RMK AO2 SLP190 T02440222
KEKY 220656Z AUTO 12003KT 10SM FEW100 OVC110 25/22 A3009 RMK AO2 SLP194 T02500222
KEKY 220556Z AUTO 10004KT 10SM FEW085 OVC100 24/23 A3011 RMK AO2 SLP200 T02390233 10278 20239 403060233 50001
KEKY 220456Z AUTO 00000KT 10SM FEW100 24/23 A3011 RMK AO2 SLP204 T02440228
KEKY 220356Z AUTO 14003KT 10SM CLR 24/23 A3011 RMK AO2 SLP203 T02440233
KEKY 220256Z AUTO 11004KT 10SM CLR 26/23 A3010 RMK AO2 SLP201 T02560233 51013
KEKY 220156Z AUTO 13003KT 10SM CLR 25/24 A3010 RMK AO2 SLP200 T02500239